createdAt,value
2023-12-30T00:02:59.207Z,70.97
2023-12-30T00:06:02.205Z,70.87
2023-12-30T00:09:06.141Z,70.23
2023-12-30T00:12:10.307Z,70.18
2023-12-30T00:15:13.117Z,70.13
2023-12-30T00:18:16.455Z,70.12
2023-12-30T00:21:20.390Z,70.17
2023-12-30T00:24:24.404Z,69.87
2023-12-30T00:27:27.472Z,69.90
2023-12-30T00:30:30.189Z,69.58
2023-12-30T00:33:33.286Z,69.56
2023-12-30T00:36:35.981Z,69.30
2023-12-30T00:39:42.713Z,69.30
2023-12-30T00:42:45.381Z,69.43
2023-12-30T00:45:49.599Z,69.62
2023-12-30T00:48:57.261Z,69.46
2023-12-30T00:52:01.147Z,69.59
2023-12-30T00:55:05.943Z,69.30
2023-12-30T00:58:09.710Z,69.49
2023-12-30T01:01:12.386Z,69.52
2023-12-30T01:04:15.101Z,69.27
2023-12-30T01:07:17.896Z,69.28
2023-12-30T01:10:22.120Z,69.18
2023-12-30T01:13:24.871Z,68.88
2023-12-30T01:16:27.653Z,69.05
2023-12-30T01:19:30.385Z,69.05
2023-12-30T01:22:33.079Z,69.00
2023-12-30T01:25:39.193Z,69.30
2023-12-30T01:28:41.901Z,69.05
2023-12-30T01:31:44.575Z,68.96
2023-12-30T01:34:47.385Z,68.91
2023-12-30T01:37:50.053Z,69.15
2023-12-30T01:40:56.556Z,69.36
2023-12-30T01:43:59.439Z,69.39
2023-12-30T01:47:02.483Z,69.26
2023-12-30T01:50:06.275Z,69.50
2023-12-30T01:53:08.958Z,69.01
2023-12-30T01:56:12.963Z,69.57
2023-12-30T01:59:15.691Z,69.48
2023-12-30T02:02:18.401Z,69.63
2023-12-30T02:05:21.271Z,69.54
2023-12-30T02:08:23.963Z,69.60
2023-12-30T02:11:27.980Z,69.74
2023-12-30T02:14:31.625Z,69.95
2023-12-30T02:17:34.406Z,69.61
2023-12-30T02:20:37.286Z,69.66
2023-12-30T02:23:41.459Z,69.87
2023-12-30T02:26:44.073Z,69.83
2023-12-30T02:29:46.850Z,69.78
2023-12-30T02:32:49.560Z,69.97
2023-12-30T02:35:52.257Z,69.60
2023-12-30T02:38:57.492Z,69.80
2023-12-30T02:42:00.154Z,69.66
2023-12-30T02:45:02.815Z,69.92
2023-12-30T02:48:06.544Z,70.27
2023-12-30T02:51:09.172Z,70.34
2023-12-30T02:54:13.136Z,70.65
2023-12-30T02:57:15.741Z,71.00
2023-12-30T03:00:19.522Z,70.67
2023-12-30T03:03:22.326Z,70.75
2023-12-30T03:06:25.112Z,70.94
2023-12-30T03:09:29.044Z,71.13
2023-12-30T03:12:31.895Z,70.50
2023-12-30T03:15:34.575Z,70.95
2023-12-30T03:18:37.261Z,71.05
2023-12-30T03:21:40.033Z,70.71
2023-12-30T03:24:43.953Z,70.94
2023-12-30T03:27:46.674Z,70.84
2023-12-30T03:30:49.346Z,70.48
2023-12-30T03:33:52.470Z,70.56
2023-12-30T03:36:55.316Z,70.39
2023-12-30T03:39:59.357Z,70.77
2023-12-30T03:43:02.699Z,70.81
2023-12-30T03:46:05.821Z,70.96
2023-12-30T03:49:08.527Z,70.56
2023-12-30T03:52:11.719Z,71.09
2023-12-30T03:55:15.878Z,70.82
2023-12-30T03:58:18.582Z,70.48
2023-12-30T04:01:21.275Z,70.92
2023-12-30T04:04:23.951Z,70.67
2023-12-30T04:07:26.600Z,71.00
2023-12-30T04:10:30.729Z,70.86
2023-12-30T04:13:33.727Z,71.18
2023-12-30T04:16:36.424Z,71.72
2023-12-30T04:19:39.126Z,71.33
2023-12-30T04:22:41.791Z,71.47
2023-12-30T04:25:45.853Z,71.84
2023-12-30T04:28:48.533Z,71.63
2023-12-30T04:31:51.223Z,71.17
2023-12-30T04:34:53.999Z,71.28
2023-12-30T04:37:56.712Z,71.17
2023-12-30T04:41:00.720Z,70.52
2023-12-30T04:44:03.612Z,70.06
2023-12-30T04:47:07.425Z,69.55
2023-12-30T04:50:10.626Z,69.77
2023-12-30T04:53:13.643Z,69.38
2023-12-30T04:56:18.004Z,69.17
2023-12-30T04:59:20.806Z,68.89
2023-12-30T05:02:23.424Z,68.82
2023-12-30T05:05:26.062Z,68.81
2023-12-30T05:08:28.724Z,69.07
2023-12-30T05:11:32.732Z,69.15
2023-12-30T05:14:35.444Z,69.36
2023-12-30T05:17:38.198Z,69.27
2023-12-30T05:20:40.920Z,68.94
2023-12-30T05:23:43.571Z,69.40
2023-12-30T05:26:47.531Z,69.50
2023-12-30T05:29:50.273Z,69.74
2023-12-30T05:32:53.032Z,69.66
2023-12-30T05:35:55.696Z,69.12
2023-12-30T05:38:58.330Z,69.42
2023-12-30T05:42:02.256Z,69.13
2023-12-30T05:45:05.478Z,69.12
2023-12-30T05:48:08.649Z,69.29
2023-12-30T05:51:11.548Z,69.71
2023-12-30T05:54:14.141Z,69.33
2023-12-30T05:57:18.994Z,69.60
2023-12-30T06:00:21.963Z,69.80
2023-12-30T06:03:24.551Z,69.50
2023-12-30T06:06:29.517Z,69.19
2023-12-30T06:09:33.842Z,69.54
2023-12-30T06:12:37.841Z,69.69
2023-12-30T06:15:40.482Z,69.46
2023-12-30T06:18:43.146Z,69.96
2023-12-30T06:21:45.800Z,70.04
2023-12-30T06:24:48.463Z,70.21
2023-12-30T06:27:52.455Z,70.39
2023-12-30T06:30:55.299Z,70.33
2023-12-30T06:33:58.191Z,70.34
2023-12-30T06:37:00.940Z,70.63
2023-12-30T06:40:03.921Z,70.82
2023-12-30T06:43:08.008Z,70.71
2023-12-30T06:46:10.642Z,70.70
2023-12-30T06:49:13.471Z,71.06
2023-12-30T06:52:16.250Z,71.09
2023-12-30T06:55:23.449Z,71.23
2023-12-30T06:58:32.853Z,71.31
2023-12-30T07:01:40.280Z,71.71
2023-12-30T07:04:42.991Z,71.87
2023-12-30T07:07:45.590Z,71.69
2023-12-30T07:10:48.659Z,71.88
2023-12-30T07:13:52.647Z,72.15
2023-12-30T07:16:55.294Z,71.62
2023-12-30T07:20:00.229Z,72.28
2023-12-30T07:23:03.558Z,72.03
2023-12-30T07:26:06.337Z,72.36
2023-12-30T07:29:10.354Z,72.64
2023-12-30T07:32:12.962Z,72.66
2023-12-30T07:35:15.763Z,72.74
2023-12-30T07:38:18.444Z,73.00
2023-12-30T07:41:21.102Z,73.11
2023-12-30T07:44:25.021Z,73.41
2023-12-30T07:47:27.962Z,73.60
2023-12-30T07:50:30.579Z,73.68
2023-12-30T07:53:33.641Z,74.25
2023-12-30T07:56:36.317Z,74.36
2023-12-30T07:59:40.343Z,75.09
2023-12-30T08:02:43.074Z,74.62
2023-12-30T08:05:45.834Z,74.93
2023-12-30T08:08:48.581Z,75.18
2023-12-30T08:11:59.183Z,75.21
2023-12-30T08:15:09.053Z,75.53
2023-12-30T08:18:12.260Z,75.88
2023-12-30T08:21:15.007Z,75.97
2023-12-30T08:24:19.307Z,75.98
2023-12-30T08:27:21.899Z,76.00
2023-12-30T08:30:25.887Z,76.68
2023-12-30T08:33:28.670Z,76.53
2023-12-30T08:36:31.534Z,77.79
2023-12-30T08:39:34.277Z,77.72
2023-12-30T08:42:37.079Z,78.14
2023-12-30T08:45:41.111Z,79.00
2023-12-30T08:48:43.801Z,78.91
2023-12-30T08:51:46.488Z,79.69
2023-12-30T08:54:49.169Z,80.32
2023-12-30T08:57:51.822Z,80.47
2023-12-30T09:00:55.969Z,80.76
2023-12-30T09:03:58.771Z,81.21
2023-12-30T09:07:01.559Z,81.68
2023-12-30T09:10:04.543Z,81.93
2023-12-30T09:13:07.726Z,82.45
2023-12-30T09:16:12.046Z,82.30
2023-12-30T09:19:14.851Z,82.44
2023-12-30T09:22:17.560Z,82.21
2023-12-30T09:25:20.296Z,82.09
2023-12-30T09:28:23.034Z,82.34
2023-12-30T09:31:28.203Z,82.17
2023-12-30T09:34:38.985Z,82.37
2023-12-30T09:37:46.539Z,82.45
2023-12-30T09:40:49.125Z,82.96
2023-12-30T09:43:51.743Z,82.76
2023-12-30T09:46:56.001Z,82.90
2023-12-30T09:49:58.620Z,83.21
2023-12-30T09:53:01.510Z,83.32
2023-12-30T09:56:04.434Z,83.34
2023-12-30T09:59:07.060Z,83.48
2023-12-30T10:02:11.408Z,83.46
2023-12-30T10:05:14.206Z,83.53
2023-12-30T10:08:16.936Z,83.70
2023-12-30T10:11:19.608Z,83.58
2023-12-30T10:14:22.321Z,83.75
2023-12-30T10:17:26.422Z,83.45
2023-12-30T10:20:29.074Z,83.51
2023-12-30T10:23:32.234Z,83.66
2023-12-30T10:26:34.874Z,83.63
2023-12-30T10:29:46.831Z,83.68
2023-12-30T10:32:55.780Z,83.59
2023-12-30T10:35:58.521Z,83.99
2023-12-30T10:39:01.195Z,83.92
2023-12-30T10:42:03.807Z,83.99
2023-12-30T10:45:07.186Z,83.83
2023-12-30T10:48:11.222Z,83.95
2023-12-30T10:51:15.043Z,84.27
2023-12-30T10:54:21.804Z,84.55
2023-12-30T10:57:24.476Z,84.56
2023-12-30T11:00:27.068Z,84.80
2023-12-30T11:03:32.567Z,85.29
2023-12-30T11:06:38.954Z,85.25
2023-12-30T11:09:41.583Z,85.44
2023-12-30T11:12:44.255Z,85.65
2023-12-30T11:15:46.890Z,86.06
2023-12-30T11:18:51.730Z,86.26
2023-12-30T11:21:55.369Z,86.48
2023-12-30T11:24:58.049Z,86.87
2023-12-30T11:28:13.678Z,87.43
2023-12-30T11:31:16.282Z,87.34
2023-12-30T11:34:20.426Z,87.70
2023-12-30T11:37:23.330Z,87.95
2023-12-30T11:40:26.736Z,88.42
2023-12-30T11:43:29.448Z,88.46
2023-12-30T11:46:32.201Z,88.69
2023-12-30T11:49:37.169Z,88.65
2023-12-30T11:52:39.917Z,89.14
2023-12-30T11:55:42.650Z,89.25
2023-12-30T11:58:45.366Z,89.11
2023-12-30T12:01:48.748Z,89.13
2023-12-30T12:04:52.878Z,89.06
2023-12-30T12:07:55.534Z,89.33
2023-12-30T12:10:58.243Z,89.37
2023-12-30T12:14:00.890Z,89.57
2023-12-30T12:17:05.540Z,89.04
2023-12-30T12:20:12.063Z,89.34
2023-12-30T12:23:15.061Z,89.16
2023-12-30T12:26:18.237Z,89.08
2023-12-30T12:29:22.091Z,88.83
2023-12-30T12:32:26.633Z,88.90
2023-12-30T12:35:31.866Z,89.18
2023-12-30T12:38:34.528Z,88.49
2023-12-30T12:41:37.547Z,88.42
2023-12-30T12:44:40.143Z,88.49
2023-12-30T12:47:42.936Z,88.13
2023-12-30T12:50:46.956Z,88.05
2023-12-30T12:53:49.976Z,87.75
2023-12-30T12:56:52.624Z,87.68
2023-12-30T12:59:55.222Z,87.48
2023-12-30T13:02:59.650Z,87.46
2023-12-30T13:06:13.246Z,87.27
2023-12-30T13:09:35.531Z,87.56
2023-12-30T13:12:38.630Z,87.38
2023-12-30T13:15:41.440Z,86.95
2023-12-30T13:18:44.177Z,87.17
2023-12-30T13:21:49.505Z,86.82
2023-12-30T13:24:52.679Z,86.72
2023-12-30T13:27:55.397Z,86.77
2023-12-30T13:30:58.709Z,86.85
2023-12-30T13:34:01.615Z,86.49
2023-12-30T13:37:07.241Z,86.76
2023-12-30T13:40:14.816Z,86.45
2023-12-30T13:43:17.614Z,86.53
2023-12-30T13:46:35.153Z,86.00
2023-12-30T13:49:59.592Z,86.09
2023-12-30T13:53:04.524Z,85.98
2023-12-30T13:56:08.036Z,85.86
2023-12-30T13:59:13.389Z,86.05
2023-12-30T14:02:19.015Z,85.89
2023-12-30T14:05:29.562Z,85.82
2023-12-30T14:08:37.908Z,86.18
2023-12-30T14:11:47.740Z,86.25
2023-12-30T14:14:54.606Z,86.47
2023-12-30T14:17:57.362Z,86.25
2023-12-30T14:21:00.050Z,86.10
2023-12-30T14:24:04.155Z,86.30
2023-12-30T14:27:06.821Z,86.40
2023-12-30T14:30:12.979Z,86.19
2023-12-30T14:33:15.910Z,86.14
2023-12-30T14:36:18.609Z,86.32
2023-12-30T14:39:22.931Z,86.25
2023-12-30T14:42:25.815Z,86.05
2023-12-30T14:45:28.421Z,86.54
2023-12-30T14:48:31.041Z,86.41
2023-12-30T14:51:33.655Z,86.21
2023-12-30T14:54:39.002Z,86.37
2023-12-30T14:57:42.178Z,86.21
2023-12-30T15:00:45.076Z,86.36
2023-12-30T15:03:47.790Z,86.27
2023-12-30T15:06:50.917Z,86.22
2023-12-30T15:09:54.848Z,86.13
2023-12-30T15:12:57.469Z,86.39
2023-12-30T15:16:00.203Z,86.28
2023-12-30T15:19:03.028Z,85.59
2023-12-30T15:22:06.325Z,85.43
2023-12-30T15:25:12.397Z,85.62
2023-12-30T15:28:15.056Z,85.64
2023-12-30T15:31:17.906Z,85.59
2023-12-30T15:34:20.685Z,85.89
2023-12-30T15:37:24.147Z,85.30
2023-12-30T15:40:28.318Z,85.37
2023-12-30T15:43:32.803Z,85.19
2023-12-30T15:46:36.795Z,85.07
2023-12-30T15:49:41.582Z,85.11
2023-12-30T15:52:44.559Z,84.95
2023-12-30T15:55:49.403Z,84.88
2023-12-30T15:58:52.565Z,84.86
2023-12-30T16:01:55.325Z,85.05
2023-12-30T16:04:57.969Z,85.11
2023-12-30T16:08:00.648Z,84.89
2023-12-30T16:11:04.887Z,85.41
2023-12-30T16:14:10.909Z,85.18
2023-12-30T16:17:14.205Z,84.57
2023-12-30T16:20:16.854Z,84.95
2023-12-30T16:23:19.501Z,84.86
2023-12-30T16:26:23.857Z,84.49
2023-12-30T16:29:26.516Z,84.67
2023-12-30T16:32:29.379Z,84.49
2023-12-30T16:35:32.110Z,84.63
2023-12-30T16:38:34.698Z,84.77
2023-12-30T16:41:38.686Z,84.62
2023-12-30T16:44:41.861Z,84.90
2023-12-30T16:47:44.634Z,84.70
2023-12-30T16:50:47.792Z,84.68
2023-12-30T16:53:50.403Z,84.93
2023-12-30T16:56:54.332Z,85.04
2023-12-30T16:59:56.908Z,84.71
2023-12-30T17:02:59.782Z,84.98
2023-12-30T17:06:03.257Z,84.74
2023-12-30T17:09:06.460Z,84.91
2023-12-30T17:12:10.718Z,84.85
2023-12-30T17:15:15.228Z,84.43
2023-12-30T17:18:17.837Z,84.75
2023-12-30T17:21:20.440Z,84.70
2023-12-30T17:24:23.102Z,84.48
2023-12-30T17:27:27.108Z,84.40
2023-12-30T17:30:30.016Z,84.46
2023-12-30T17:33:32.689Z,83.79
2023-12-30T17:36:35.299Z,83.51
2023-12-30T17:39:37.898Z,84.12
2023-12-30T17:42:41.809Z,83.85
2023-12-30T17:45:44.570Z,83.92
2023-12-30T17:48:47.236Z,83.56
2023-12-30T17:51:49.812Z,84.06
2023-12-30T17:54:52.406Z,83.66
2023-12-30T17:57:56.327Z,84.03
2023-12-30T18:00:58.960Z,83.77
2023-12-30T18:04:02.231Z,84.14
2023-12-30T18:07:05.296Z,83.65
2023-12-30T18:10:08.828Z,84.04
2023-12-30T18:13:13.061Z,83.67
2023-12-30T18:16:15.788Z,84.21
2023-12-30T18:19:18.717Z,84.00
2023-12-30T18:22:21.370Z,84.03
2023-12-30T18:25:24.164Z,83.81
2023-12-30T18:28:28.221Z,83.87
2023-12-30T18:31:32.343Z,83.90
2023-12-30T18:34:36.321Z,84.44
2023-12-30T18:37:39.156Z,83.82
2023-12-30T18:40:43.465Z,84.00
2023-12-30T18:43:47.603Z,84.31
2023-12-30T18:46:50.763Z,84.46
2023-12-30T18:49:53.466Z,84.53
2023-12-30T18:52:57.652Z,84.30
2023-12-30T18:56:04.246Z,84.67
2023-12-30T18:59:08.259Z,84.54
2023-12-30T19:02:10.989Z,85.30
2023-12-30T19:05:14.099Z,84.98
2023-12-30T19:08:16.782Z,85.39
2023-12-30T19:11:20.015Z,85.35
2023-12-30T19:14:24.703Z,84.92
2023-12-30T19:17:28.178Z,85.24
2023-12-30T19:20:30.974Z,85.50
2023-12-30T19:23:35.974Z,85.77
2023-12-30T19:26:38.620Z,85.95
2023-12-30T19:29:42.601Z,85.88
2023-12-30T19:32:45.253Z,85.91
2023-12-30T19:35:48.370Z,86.05
2023-12-30T19:38:51.428Z,86.23
2023-12-30T19:41:54.016Z,86.37
2023-12-30T19:44:58.238Z,86.37
2023-12-30T19:48:01.356Z,86.28
2023-12-30T19:51:05.481Z,86.88
2023-12-30T19:54:08.197Z,86.90
2023-12-30T19:57:11.368Z,87.46
2023-12-30T20:00:16.058Z,87.06
2023-12-30T20:03:19.233Z,87.72
2023-12-30T20:06:21.886Z,87.49
2023-12-30T20:09:24.575Z,87.71
2023-12-30T20:12:29.069Z,87.72
2023-12-30T20:15:33.000Z,88.13
2023-12-30T20:18:36.225Z,87.91
2023-12-30T20:21:39.515Z,88.17
2023-12-30T20:24:42.102Z,88.00
2023-12-30T20:27:44.727Z,88.54
2023-12-30T20:30:48.700Z,88.69
2023-12-30T20:33:51.473Z,88.61
2023-12-30T20:36:54.136Z,88.90
2023-12-30T20:39:56.727Z,88.92
2023-12-30T20:43:00.174Z,89.06
2023-12-30T20:46:08.858Z,89.20
2023-12-30T20:49:11.594Z,89.34
2023-12-30T20:52:14.686Z,89.42
2023-12-30T20:55:17.443Z,89.19
2023-12-30T20:58:20.235Z,89.38
2023-12-30T21:01:24.309Z,89.37
2023-12-30T21:04:27.084Z,89.56
2023-12-30T21:07:29.733Z,90.01
2023-12-30T21:10:32.406Z,89.95
2023-12-30T21:13:35.042Z,89.66
2023-12-30T21:16:39.096Z,90.10
2023-12-30T21:19:41.949Z,90.48
2023-12-30T21:22:44.619Z,90.71
2023-12-30T21:25:50.186Z,90.52
2023-12-30T21:28:52.933Z,90.18
2023-12-30T21:31:56.980Z,90.64
2023-12-30T21:34:59.683Z,90.20
2023-12-30T21:38:02.714Z,90.84
2023-12-30T21:41:06.088Z,90.23
2023-12-30T21:44:08.686Z,90.63
2023-12-30T21:47:12.681Z,90.58
2023-12-30T21:50:15.471Z,90.85
2023-12-30T21:53:18.155Z,90.81
2023-12-30T21:56:20.773Z,90.55
2023-12-30T21:59:23.401Z,90.60
2023-12-30T22:02:27.550Z,89.98
2023-12-30T22:05:30.478Z,90.49
2023-12-30T22:08:33.102Z,90.00
2023-12-30T22:11:35.735Z,90.37
2023-12-30T22:14:39.451Z,90.65
2023-12-30T22:17:43.431Z,90.46
2023-12-30T22:20:46.045Z,90.48
2023-12-30T22:23:49.082Z,90.28
2023-12-30T22:26:51.731Z,89.99
2023-12-30T22:29:54.323Z,90.45
2023-12-30T22:32:58.406Z,90.58
2023-12-30T22:36:01.551Z,90.33
2023-12-30T22:39:04.150Z,90.43
2023-12-30T22:42:06.978Z,91.01
2023-12-30T22:45:10.270Z,90.28
2023-12-30T22:48:14.835Z,90.94
2023-12-30T22:51:17.506Z,90.95
2023-12-30T22:54:20.103Z,91.00
2023-12-30T22:57:22.727Z,91.77
2023-12-30T23:00:28.195Z,91.30
2023-12-30T23:03:32.138Z,91.57
2023-12-30T23:06:34.795Z,91.71
2023-12-30T23:09:37.919Z,91.67
2023-12-30T23:12:40.549Z,92.04
2023-12-30T23:15:43.222Z,91.89
2023-12-30T23:18:47.311Z,91.53
2023-12-30T23:21:50.101Z,91.89
2023-12-30T23:24:52.751Z,91.36
2023-12-30T23:27:55.349Z,91.52
2023-12-30T23:30:58.003Z,91.25
2023-12-30T23:34:02.652Z,90.67
2023-12-30T23:37:05.828Z,90.91
2023-12-30T23:40:10.162Z,90.17
2023-12-30T23:43:12.929Z,90.03
2023-12-30T23:46:15.570Z,89.31
2023-12-30T23:49:19.663Z,88.86
2023-12-30T23:52:22.383Z,88.89
2023-12-30T23:55:25.057Z,89.15
2023-12-30T23:58:27.757Z,88.67
